• Join FlightAware (Why Join?)
  • Login
  • US Flag 
01:52PM EDT


 

Airport Tracker/Info


-or-


 

Live Flight TrackerFlight Track Log ✈ N508QS ✈ 14-May-2013 ✈ KPDX - KSJC

Flight Track Log - Related Links

Times and Time Zones

All times are in EDT time to prevent confusion due to time zone crossing. See the N508QS flight status page for this flight to view local times or setup timezone preferences in your user account.

Time Position Orientation Groundspeed Altitude Reporting Facility
EDT Latitude Longitude Course Direction KTS MPH feet Rate Location/Type
10:52PM 45.5931 -122.5922 293° West 164 189 1,200  Level Seattle Center
10:53PM 45.6142 -122.6633 293° West 193 222 5,600 4,080 Climbing Seattle Center
10:54PM 45.6044 -122.7458 260° West 250 288 9,800 3,660 Climbing Seattle Center
10:55PM 45.5247 -122.7786 196° South 302 348 13,100 3,600 Climbing Seattle Center
10:56PM 45.4308 -122.8139 195° South 340 391 17,200 3,780 Climbing Seattle Center
10:57PM 45.3317 -122.8431 192° South 362 417 20,900 2,940 Climbing Seattle Center
10:58PM 45.2267 -122.8769 193° South 384 442 23,200 2,820 Climbing Seattle Center
10:59PM 45.0936 -122.9203 193° South 411 473 26,800 2,940 Climbing Seattle Center
11:00PM 44.9772 -122.9556 192° South 426 490 29,400 2,400 Climbing Seattle Center
11:01PM 44.8564 -122.9936 193° South 439 505 31,800 2,760 Climbing Seattle Center
11:02PM 44.7344 -123.0300 192° South 443 510 35,000 2,820 Climbing Seattle Center
11:03PM 44.6172 -123.0678 193° South 434 499 37,500 2,280 Climbing Seattle Center
11:04PM 44.5008 -123.1033 192° South 428 493 39,700 1,680 Climbing Seattle Center
11:05PM 44.3858 -123.1394 193° South 425 489 41,000 600 Climbing Seattle Center
11:06PM 44.2717 -123.1722 192° South 421 484 41,000  Level Seattle Center
11:07PM 44.1553 -123.2100 193° South 426 490 41,000  Level Seattle Center
11:08PM 44.0439 -123.2331 188° South 426 490 41,000  Level Seattle Center
11:09PM 43.9242 -123.2489 185° South 430 495 41,000  Level Seattle Center
11:10PM 43.8047 -123.2658 186° South 431 496 41,000  Level Seattle Center
11:11PM 43.6842 -123.2828 186° South 434 499 41,000  Level Seattle Center
11:12PM 43.5642 -123.2981 185° South 433 498 41,000  Level Seattle Center
11:13PM 43.4458 -123.3144 186° South 429 494 41,000  Level Seattle Center
11:14PM 43.3258 -123.3314 186° South 433 498 41,000  Level Seattle Center
11:15PM 43.1806 -123.3486 185° South 436 502 41,000  Level Seattle Center
11:16PM 43.0592 -123.3489 180° South 436 502 41,000  Level Seattle Center
11:17PM 42.9378 -123.3450 179° South 436 502 41,000  Level Seattle Center
11:18PM 42.8142 -123.3433 179° South 442 509 41,000  Level Seattle Center
11:19PM 42.6983 -123.3403 179° South 443 510 41,000  Level Seattle Center
11:20PM 42.5753 -123.3383 179° South 444 511 41,000  Level Seattle Center
11:21PM 42.4519 -123.3361 179° South 445 512 41,000  Level Seattle Center
11:22PM 42.3289 -123.3333 179° South 444 511 41,000  Level Seattle Center
11:23PM 42.2042 -123.3308 179° South 446 513 41,000  Level Seattle Center
11:24PM 42.0800 -123.3297 180° South 449 517 41,000  Level Seattle Center
11:25PM 41.9547 -123.3256 179° South 450 518 41,000  Level Seattle Center
11:26PM 41.8303 -123.3239 179° South 449 517 41,000  Level Seattle Center
11:27PM 41.6800 -123.3164 178° South 451 519 41,000  Level Seattle Center
11:28PM 41.5575 -123.3011 175° South 445 512 41,000  Level Seattle Center
11:29PM 41.4308 -123.2836 174° South 455 524 41,000  Level Seattle Center
11:30PM 41.3161 -123.2700 175° South 458 527 41,000  Level Seattle Center
11:31PM 41.1886 -123.2528 174° South 460 529 41,000  Level Seattle Center
11:32PM 41.0603 -123.2367 175° South 461 531 41,000  Level Seattle Center
11:33PM 40.9319 -123.2197 174° South 462 532 41,000  Level Seattle Center
11:34PM 40.8025 -123.2039 175° South 465 535 41,000  Level Seattle Center
11:35PM 40.7619 -123.1989 175° South 466 536 41,000  Level Oakland Center
11:36PM 40.6333 -123.1825 174° South 466 536 41,000  Level Oakland Center
11:37PM 40.5031 -123.1653 174° South 470 541 41,000  Level Oakland Center
11:38PM 40.3744 -123.1492 175° South 468 539 41,000  Level Oakland Center
11:39PM 40.2200 -123.1306 175° South 467 537 41,000  Level Oakland Center
11:40PM 40.0906 -123.1153 175° South 469 540 41,000  Level Oakland Center
11:41PM 39.9594 -123.0986 174° South 474 545 41,000 -60 Level Oakland Center
11:42PM 39.8311 -123.0817 174° South 466 536 40,900 -840 Descending Oakland Center
11:43PM 39.7044 -123.0658 175° South 461 531 39,400 -1,500 Descending Oakland Center
11:44PM 39.5761 -123.0511 175° South 462 532 37,900 -1,440 Descending Oakland Center
11:45PM 39.4511 -123.0336 174° South 467 537 36,500 -1,440 Descending Oakland Center
11:46PM 39.3178 -123.0189 175° South 477 549 35,000 -1,680 Descending Oakland Center
11:47PM 39.1608 -122.9992 174° South 474 545 33,200 -1,680 Descending Oakland Center
11:48PM 39.0267 -122.9833 175° South 481 554 31,700 -1,560 Descending Oakland Center
11:49PM 38.8914 -122.9667 175° South 487 560 30,100 -1,680 Descending Oakland Center
11:50PM 38.7644 -122.9506 174° South 471 542 28,300 -1,800 Descending Oakland Center
11:51PM 38.6375 -122.9361 175° South 460 529 26,500 -1,800 Descending Oakland Center
11:52PM 38.5156 -122.9192 174° South 445 512 24,700 -1,800 Descending Oakland Center
11:53PM 38.3947 -122.9061 175° South 438 504 22,900 -1,680 Descending Oakland Center
11:54PM 38.2767 -122.8911 174° South 432 497 21,300 -1,620 Descending Oakland Center
11:55PM 38.1617 -122.8778 175° South 421 484 19,700 -1,560 Descending Oakland Center
11:56PM 38.0539 -122.8400 165° South 418 481 18,200 -1,440 Descending Oakland Center
11:57PM 37.9656 -122.7456 140° Southeast 416 479 16,800 -1,620 Descending Oakland Center
11:58PM 37.8628 -122.6339 139° Southeast 408 470 15,000 -1,740 Descending Oakland Center
11:59PM 37.8000 -122.5833 148° Southeast 396 456 14,000 -1,440 Descending Northern Cal TRACON
12:00AM 37.7333 -122.5000 135° Southeast 383 441 12,700 -1,020 Descending Northern Cal TRACON
12:01AM 37.6667 -122.4167 135° Southeast 322 371 12,000 -360 Descending Northern Cal TRACON
12:02AM 37.5833 -122.3500 148° Southeast 319 367 12,000 -240 Level Northern Cal TRACON
12:02AM 37.5572 -122.3303 149° Southeast 333 383 11,700 -1,320 Descending Oakland Center
12:03AM 37.4778 -122.2839 155° Southeast 317 365 10,100 -1,380 Descending Oakland Center
12:04AM 37.4000 -122.2411 156° South 310 357 9,000 -660 Descending Oakland Center
12:05AM 37.3319 -122.1875 148° Southeast 301 346 8,800 -840 Descending Oakland Center
12:06AM 37.2842 -122.1125 129° Southeast 283 326 7,400 -1,140 Descending Oakland Center
12:07AM 37.2386 -122.0378 127° Southeast 273 314 6,500 -1,140 Descending Oakland Center
12:08AM 37.2103 -121.9603 115° Southeast 260 299 5,100 -1,020 Descending Oakland Center
12:09AM 37.2006 -121.8678 97° East 240 276 4,500 -1,140 Descending Oakland Center
12:11AM 37.3167 -121.8667 360° North 169 194 1,300 -1,200 Descending Northern Cal TRACON
12:12AM 37.3333 -121.9000 302° West 118 136 600 -720 Descending Northern Cal TRACON